Aviation Digital Data Service (ADDS)

Output produced by METARs form (1428 UTC 02 October 2014)
found at http://aviationweather.gov/adds/metars/
 
KLGA 021146Z 0212/0312 02012KT P6SM OVC015 
     FM021700 03012KT P6SM BKN025 
     FM022000 04010KT P6SM BKN035 
     FM022200 04010KT P6SM FEW030 BKN080 
     FM030200 03007KT P6SM SCT025 SCT080